Country
Station

 

Weather  for  Safford, Safford Municipal Airport  -  United States    United States

  
25 °C (77 °F)
    
 
 

Current METAR for Safford, Safford Municipal Airport is :

KSAD 230951Z AUTO 21004KT 10SM CLR 25/M04 A2983 RMK AO2 SLP033 T02501039

 

This is a report for Safford, Safford Municipal Airport - United States.
 
The report was made 35 minutes ago, at 09:51 UTC .
The wind was blowing at a speed of 2.1 meters per second (4.6 miles per hour) from south/southwest (210°).
 
The temperature was 25 °C (77 °F), with a dew-point at -4 °C (25 °F).
The temperature felt like 24 °C (76 °F).
 
The atmospheric pressure was 1010 hPa (29.83 inHg).
The relative humidity was 14.3%.
 
The sky was clear.
 
The overall visibility was 16.1 kilometers (10.0 miles).
 

 
 
 
 

Country :   A   B   C   D   E   F   G   H   I   J   K   L   M   N   O   P   Q   R   S   T   U   V   W   Y   Z

 

Site Info  |  Disclaimer  |  Credits  |  Privacy
Contact us  |  Add to favorites
© 2013-2018 METARs - All rights reserved